sensor_id;sensor_type;location;lat;lon;timestamp;P1;durP1;ratioP1;P2;durP2;ratioP2
67456;SDS011;54319;52.038;4.640;2022-08-05T00:01:21;7.65;;;2.80;;
67456;SDS011;54319;52.038;4.640;2022-08-05T00:03:49;9.20;;;2.75;;
67456;SDS011;54319;52.038;4.640;2022-08-05T00:06:16;6.75;;;3.05;;
67456;SDS011;54319;52.038;4.640;2022-08-05T00:08:44;4.65;;;2.90;;
67456;SDS011;54319;52.038;4.640;2022-08-05T00:11:13;7.20;;;3.25;;
67456;SDS011;54319;52.038;4.640;2022-08-05T00:13:41;8.45;;;2.92;;
67456;SDS011;54319;52.038;4.640;2022-08-05T00:16:10;7.13;;;2.95;;
67456;SDS011;54319;52.038;4.640;2022-08-05T00:18:40;6.18;;;3.15;;
67456;SDS011;54319;52.038;4.640;2022-08-05T00:21:08;7.03;;;3.15;;
67456;SDS011;54319;52.038;4.640;2022-08-05T00:23:37;8.57;;;3.50;;
67456;SDS011;54319;52.038;4.640;2022-08-05T00:26:05;6.40;;;3.10;;
67456;SDS011;54319;52.038;4.640;2022-08-05T00:28:33;7.50;;;3.15;;
67456;SDS011;54319;52.038;4.640;2022-08-05T00:31:02;8.43;;;3.20;;
67456;SDS011;54319;52.038;4.640;2022-08-05T00:33:30;7.22;;;3.40;;
67456;SDS011;54319;52.038;4.640;2022-08-05T00:35:57;7.68;;;3.60;;
67456;SDS011;54319;52.038;4.640;2022-08-05T00:38:25;8.07;;;3.38;;
67456;SDS011;54319;52.038;4.640;2022-08-05T00:40:53;8.95;;;3.67;;
67456;SDS011;54319;52.038;4.640;2022-08-05T00:43:22;6.38;;;3.30;;
67456;SDS011;54319;52.038;4.640;2022-08-05T00:45:49;8.35;;;3.80;;
67456;SDS011;54319;52.038;4.640;2022-08-05T00:50:45;6.72;;;3.80;;
67456;SDS011;54319;52.038;4.640;2022-08-05T00:53:14;11.38;;;4.40;;
67456;SDS011;54319;52.038;4.640;2022-08-05T00:55:42;9.98;;;4.25;;
67456;SDS011;54319;52.038;4.640;2022-08-05T00:58:11;10.48;;;3.63;;
67456;SDS011;54319;52.038;4.640;2022-08-05T01:00:40;9.20;;;3.67;;
67456;SDS011;54319;52.038;4.640;2022-08-05T01:03:07;7.18;;;3.70;;
67456;SDS011;54319;52.038;4.640;2022-08-05T01:08:01;8.68;;;3.40;;
67456;SDS011;54319;52.038;4.640;2022-08-05T01:10:29;8.02;;;3.35;;
67456;SDS011;54319;52.038;4.640;2022-08-05T01:13:07;7.55;;;3.88;;
67456;SDS011;54319;52.038;4.640;2022-08-05T01:15:44;7.82;;;4.00;;
67456;SDS011;54319;52.038;4.640;2022-08-05T01:18:14;9.52;;;3.53;;
67456;SDS011;54319;52.038;4.640;2022-08-05T01:20:49;8.95;;;4.20;;
67456;SDS011;54319;52.038;4.640;2022-08-05T01:23:34;6.00;;;2.78;;
67456;SDS011;54319;52.038;4.640;2022-08-05T01:26:24;6.38;;;2.97;;
67456;SDS011;54319;52.038;4.640;2022-08-05T01:29:03;8.50;;;3.17;;
67456;SDS011;54319;52.038;4.640;2022-08-05T01:31:36;8.60;;;3.10;;
67456;SDS011;54319;52.038;4.640;2022-08-05T01:34:06;5.10;;;2.70;;
67456;SDS011;54319;52.038;4.640;2022-08-05T01:36:39;6.85;;;2.83;;
67456;SDS011;54319;52.038;4.640;2022-08-05T01:39:09;3.40;;;2.20;;
67456;SDS011;54319;52.038;4.640;2022-08-05T01:41:39;7.32;;;2.10;;
67456;SDS011;54319;52.038;4.640;2022-08-05T01:44:09;4.68;;;2.35;;
67456;SDS011;54319;52.038;4.640;2022-08-05T01:46:37;9.00;;;2.50;;
67456;SDS011;54319;52.038;4.640;2022-08-05T01:49:06;4.57;;;2.25;;
67456;SDS011;54319;52.038;4.640;2022-08-05T01:51:36;4.10;;;2.13;;
67456;SDS011;54319;52.038;4.640;2022-08-05T01:54:04;4.22;;;2.10;;
67456;SDS011;54319;52.038;4.640;2022-08-05T01:56:36;3.60;;;2.40;;
67456;SDS011;54319;52.038;4.640;2022-08-05T01:59:05;4.00;;;2.35;;
67456;SDS011;54319;52.038;4.640;2022-08-05T02:01:36;9.63;;;2.60;;
67456;SDS011;54319;52.038;4.640;2022-08-05T02:04:04;11.48;;;2.90;;
67456;SDS011;54319;52.038;4.640;2022-08-05T02:06:32;4.47;;;2.45;;
67456;SDS011;54319;52.038;4.640;2022-08-05T02:08:59;4.35;;;2.45;;
67456;SDS011;54319;52.038;4.640;2022-08-05T02:11:28;4.40;;;2.70;;
67456;SDS011;54319;52.038;4.640;2022-08-05T02:14:04;3.25;;;2.22;;
67456;SDS011;54319;52.038;4.640;2022-08-05T02:16:40;4.07;;;2.20;;
67456;SDS011;54319;52.038;4.640;2022-08-05T02:19:13;5.80;;;2.53;;
67456;SDS011;54319;52.038;4.640;2022-08-05T02:21:48;5.25;;;2.50;;
67456;SDS011;54319;52.038;4.640;2022-08-05T02:24:25;5.03;;;2.30;;
67456;SDS011;54319;52.038;4.640;2022-08-05T02:26:58;7.20;;;2.92;;
67456;SDS011;54319;52.038;4.640;2022-08-05T02:29:27;10.50;;;2.70;;
67456;SDS011;54319;52.038;4.640;2022-08-05T02:31:56;9.98;;;2.65;;
67456;SDS011;54319;52.038;4.640;2022-08-05T02:34:23;5.50;;;2.53;;
67456;SDS011;54319;52.038;4.640;2022-08-05T02:36:55;5.30;;;2.60;;
67456;SDS011;54319;52.038;4.640;2022-08-05T02:39:34;3.67;;;2.50;;
67456;SDS011;54319;52.038;4.640;2022-08-05T02:42:04;9.80;;;2.80;;
67456;SDS011;54319;52.038;4.640;2022-08-05T02:44:33;7.18;;;2.92;;
67456;SDS011;54319;52.038;4.640;2022-08-05T02:47:06;5.05;;;2.60;;
67456;SDS011;54319;52.038;4.640;2022-08-05T02:49:35;6.28;;;2.70;;
67456;SDS011;54319;52.038;4.640;2022-08-05T02:52:06;6.07;;;2.80;;
67456;SDS011;54319;52.038;4.640;2022-08-05T02:54:35;5.32;;;2.85;;
67456;SDS011;54319;52.038;4.640;2022-08-05T02:57:04;5.28;;;2.60;;
67456;SDS011;54319;52.038;4.640;2022-08-05T02:59:33;5.88;;;2.70;;
67456;SDS011;54319;52.038;4.640;2022-08-05T03:02:00;8.00;;;2.65;;
67456;SDS011;54319;52.038;4.640;2022-08-05T03:04:31;5.00;;;2.67;;
67456;SDS011;54319;52.038;4.640;2022-08-05T03:07:00;6.85;;;2.70;;
67456;SDS011;54319;52.038;4.640;2022-08-05T03:09:27;8.10;;;2.63;;
67456;SDS011;54319;52.038;4.640;2022-08-05T03:11:54;4.20;;;2.38;;
67456;SDS011;54319;52.038;4.640;2022-08-05T03:14:21;4.25;;;2.30;;
67456;SDS011;54319;52.038;4.640;2022-08-05T03:16:48;6.22;;;3.00;;
67456;SDS011;54319;52.038;4.640;2022-08-05T03:19:14;4.75;;;2.65;;
67456;SDS011;54319;52.038;4.640;2022-08-05T03:21:43;6.60;;;2.70;;
67456;SDS011;54319;52.038;4.640;2022-08-05T03:24:10;6.43;;;3.00;;
67456;SDS011;54319;52.038;4.640;2022-08-05T03:26:38;9.00;;;2.97;;
67456;SDS011;54319;52.038;4.640;2022-08-05T03:29:04;3.55;;;2.42;;
67456;SDS011;54319;52.038;4.640;2022-08-05T03:31:32;3.40;;;2.33;;
67456;SDS011;54319;52.038;4.640;2022-08-05T03:33:59;6.82;;;2.83;;
67456;SDS011;54319;52.038;4.640;2022-08-05T03:36:26;4.88;;;2.70;;
67456;SDS011;54319;52.038;4.640;2022-08-05T03:38:54;6.88;;;2.63;;
67456;SDS011;54319;52.038;4.640;2022-08-05T03:41:21;5.68;;;2.75;;
67456;SDS011;54319;52.038;4.640;2022-08-05T03:43:47;7.18;;;2.80;;
67456;SDS011;54319;52.038;4.640;2022-08-05T03:46:15;3.35;;;2.40;;
67456;SDS011;54319;52.038;4.640;2022-08-05T03:48:41;5.53;;;2.72;;
67456;SDS011;54319;52.038;4.640;2022-08-05T03:51:11;5.00;;;2.80;;
67456;SDS011;54319;52.038;4.640;2022-08-05T03:53:41;5.05;;;2.85;;
67456;SDS011;54319;52.038;4.640;2022-08-05T03:56:16;4.53;;;2.80;;
67456;SDS011;54319;52.038;4.640;2022-08-05T03:58:50;7.60;;;2.83;;
67456;SDS011;54319;52.038;4.640;2022-08-05T04:01:19;5.20;;;2.88;;
67456;SDS011;54319;52.038;4.640;2022-08-05T04:03:49;5.90;;;2.83;;
67456;SDS011;54319;52.038;4.640;2022-08-05T04:06:18;8.18;;;3.53;;
67456;SDS011;54319;52.038;4.640;2022-08-05T04:08:45;6.03;;;3.05;;
67456;SDS011;54319;52.038;4.640;2022-08-05T04:11:13;5.35;;;3.13;;
67456;SDS011;54319;52.038;4.640;2022-08-05T04:13:41;5.80;;;2.75;;
67456;SDS011;54319;52.038;4.640;2022-08-05T04:16:08;4.72;;;3.50;;
67456;SDS011;54319;52.038;4.640;2022-08-05T04:18:35;6.68;;;3.22;;
67456;SDS011;54319;52.038;4.640;2022-08-05T04:21:04;5.47;;;3.00;;
67456;SDS011;54319;52.038;4.640;2022-08-05T04:23:32;6.57;;;3.20;;
67456;SDS011;54319;52.038;4.640;2022-08-05T04:26:01;4.78;;;3.00;;
67456;SDS011;54319;52.038;4.640;2022-08-05T04:28:27;4.85;;;3.20;;
67456;SDS011;54319;52.038;4.640;2022-08-05T04:30:56;7.53;;;3.33;;
67456;SDS011;54319;52.038;4.640;2022-08-05T04:33:23;5.45;;;3.10;;
67456;SDS011;54319;52.038;4.640;2022-08-05T04:35:50;6.30;;;2.92;;
67456;SDS011;54319;52.038;4.640;2022-08-05T04:38:17;6.17;;;2.87;;
67456;SDS011;54319;52.038;4.640;2022-08-05T04:40:43;6.40;;;3.30;;
67456;SDS011;54319;52.038;4.640;2022-08-05T04:43:11;5.05;;;3.28;;
67456;SDS011;54319;52.038;4.640;2022-08-05T04:45:37;4.33;;;3.00;;
67456;SDS011;54319;52.038;4.640;2022-08-05T04:48:06;6.80;;;3.15;;
67456;SDS011;54319;52.038;4.640;2022-08-05T04:50:37;3.63;;;2.90;;
67456;SDS011;54319;52.038;4.640;2022-08-05T04:53:06;6.80;;;3.10;;
67456;SDS011;54319;52.038;4.640;2022-08-05T04:55:32;4.60;;;2.97;;
67456;SDS011;54319;52.038;4.640;2022-08-05T04:58:00;5.32;;;3.38;;
67456;SDS011;54319;52.038;4.640;2022-08-05T05:00:27;3.33;;;2.87;;
67456;SDS011;54319;52.038;4.640;2022-08-05T05:05:22;6.00;;;3.07;;
67456;SDS011;54319;52.038;4.640;2022-08-05T05:07:50;4.43;;;2.70;;
67456;SDS011;54319;52.038;4.640;2022-08-05T05:10:17;4.55;;;2.60;;
67456;SDS011;54319;52.038;4.640;2022-08-05T05:15:10;4.47;;;2.53;;
67456;SDS011;54319;52.038;4.640;2022-08-05T05:17:38;3.55;;;2.35;;
67456;SDS011;54319;52.038;4.640;2022-08-05T05:20:05;3.38;;;2.50;;
67456;SDS011;54319;52.038;4.640;2022-08-05T05:22:35;4.20;;;2.53;;
67456;SDS011;54319;52.038;4.640;2022-08-05T05:25:02;5.55;;;2.40;;
67456;SDS011;54319;52.038;4.640;2022-08-05T05:27:31;4.13;;;2.60;;
67456;SDS011;54319;52.038;4.640;2022-08-05T05:29:59;7.15;;;2.80;;
67456;SDS011;54319;52.038;4.640;2022-08-05T05:32:27;4.43;;;2.70;;
67456;SDS011;54319;52.038;4.640;2022-08-05T05:34:53;7.65;;;3.00;;
67456;SDS011;54319;52.038;4.640;2022-08-05T05:37:20;4.63;;;2.67;;
67456;SDS011;54319;52.038;4.640;2022-08-05T05:39:48;6.30;;;2.40;;
67456;SDS011;54319;52.038;4.640;2022-08-05T05:42:16;2.60;;;2.10;;
67456;SDS011;54319;52.038;4.640;2022-08-05T05:44:42;6.25;;;2.28;;
67456;SDS011;54319;52.038;4.640;2022-08-05T05:47:09;3.90;;;2.22;;
67456;SDS011;54319;52.038;4.640;2022-08-05T05:49:36;4.77;;;2.07;;
67456;SDS011;54319;52.038;4.640;2022-08-05T05:52:03;2.90;;;2.05;;
67456;SDS011;54319;52.038;4.640;2022-08-05T05:54:30;3.28;;;1.95;;
67456;SDS011;54319;52.038;4.640;2022-08-05T05:59:25;2.15;;;1.70;;
67456;SDS011;54319;52.038;4.640;2022-08-05T06:01:52;4.75;;;1.67;;
67456;SDS011;54319;52.038;4.640;2022-08-05T06:04:19;2.10;;;1.70;;
67456;SDS011;54319;52.038;4.640;2022-08-05T06:06:47;5.72;;;1.70;;
67456;SDS011;54319;52.038;4.640;2022-08-05T06:09:13;3.03;;;1.65;;
67456;SDS011;54319;52.038;4.640;2022-08-05T06:11:40;4.10;;;1.98;;
67456;SDS011;54319;52.038;4.640;2022-08-05T06:14:08;3.07;;;1.53;;
67456;SDS011;54319;52.038;4.640;2022-08-05T06:16:35;2.78;;;1.50;;
67456;SDS011;54319;52.038;4.640;2022-08-05T06:19:02;3.75;;;1.60;;
67456;SDS011;54319;52.038;4.640;2022-08-05T06:21:29;2.55;;;1.77;;
67456;SDS011;54319;52.038;4.640;2022-08-05T06:23:56;1.50;;;1.40;;
67456;SDS011;54319;52.038;4.640;2022-08-05T06:26:24;1.88;;;1.30;;
67456;SDS011;54319;52.038;4.640;2022-08-05T06:28:50;2.25;;;1.50;;
67456;SDS011;54319;52.038;4.640;2022-08-05T06:31:19;1.75;;;1.30;;
67456;SDS011;54319;52.038;4.640;2022-08-05T06:33:45;6.93;;;1.65;;
67456;SDS011;54319;52.038;4.640;2022-08-05T06:38:39;1.80;;;1.25;;
67456;SDS011;54319;52.038;4.640;2022-08-05T06:41:06;5.45;;;1.50;;
67456;SDS011;54319;52.038;4.640;2022-08-05T06:43:33;2.35;;;1.38;;
67456;SDS011;54319;52.038;4.640;2022-08-05T06:46:00;2.45;;;1.50;;
67456;SDS011;54319;52.038;4.640;2022-08-05T06:48:28;4.60;;;1.70;;
67456;SDS011;54319;52.038;4.640;2022-08-05T06:50:58;2.85;;;1.40;;
67456;SDS011;54319;52.038;4.640;2022-08-05T06:53:25;4.38;;;1.23;;
67456;SDS011;54319;52.038;4.640;2022-08-05T06:55:52;1.98;;;1.20;;
67456;SDS011;54319;52.038;4.640;2022-08-05T06:58:18;2.93;;;1.27;;
67456;SDS011;54319;52.038;4.640;2022-08-05T07:00:45;2.87;;;1.60;;
67456;SDS011;54319;52.038;4.640;2022-08-05T07:03:12;3.65;;;1.50;;
67456;SDS011;54319;52.038;4.640;2022-08-05T07:05:39;2.80;;;1.42;;
67456;SDS011;54319;52.038;4.640;2022-08-05T07:08:06;2.55;;;1.40;;
67456;SDS011;54319;52.038;4.640;2022-08-05T07:10:33;2.65;;;1.33;;
67456;SDS011;54319;52.038;4.640;2022-08-05T07:13:00;2.88;;;1.27;;
67456;SDS011;54319;52.038;4.640;2022-08-05T07:15:44;1.75;;;1.50;;
67456;SDS011;54319;52.038;4.640;2022-08-05T07:18:29;3.20;;;1.60;;
67456;SDS011;54319;52.038;4.640;2022-08-05T07:23:24;4.32;;;1.20;;
67456;SDS011;54319;52.038;4.640;2022-08-05T07:25:51;2.65;;;1.38;;
67456;SDS011;54319;52.038;4.640;2022-08-05T07:28:18;3.22;;;1.60;;
67456;SDS011;54319;52.038;4.640;2022-08-05T07:30:45;2.65;;;1.02;;
67456;SDS011;54319;52.038;4.640;2022-08-05T07:33:12;2.80;;;1.30;;
67456;SDS011;54319;52.038;4.640;2022-08-05T07:35:39;6.47;;;1.70;;
67456;SDS011;54319;52.038;4.640;2022-08-05T07:38:08;3.28;;;1.40;;
67456;SDS011;54319;52.038;4.640;2022-08-05T07:40:34;2.53;;;1.13;;
67456;SDS011;54319;52.038;4.640;2022-08-05T07:43:02;1.73;;;0.88;;
67456;SDS011;54319;52.038;4.640;2022-08-05T07:45:28;4.10;;;0.80;;
67456;SDS011;54319;52.038;4.640;2022-08-05T07:50:22;1.42;;;0.82;;
67456;SDS011;54319;52.038;4.640;2022-08-05T07:52:50;2.20;;;0.82;;
67456;SDS011;54319;52.038;4.640;2022-08-05T07:55:18;2.60;;;1.00;;
67456;SDS011;54319;52.038;4.640;2022-08-05T07:57:45;1.98;;;0.85;;
67456;SDS011;54319;52.038;4.640;2022-08-05T08:00:12;1.83;;;0.80;;
67456;SDS011;54319;52.038;4.640;2022-08-05T08:02:40;2.60;;;1.00;;
67456;SDS011;54319;52.038;4.640;2022-08-05T08:05:08;6.35;;;1.00;;
67456;SDS011;54319;52.038;4.640;2022-08-05T08:10:03;5.88;;;0.82;;
67456;SDS011;54319;52.038;4.640;2022-08-05T08:12:32;2.72;;;0.80;;
67456;SDS011;54319;52.038;4.640;2022-08-05T08:14:59;3.05;;;0.85;;
67456;SDS011;54319;52.038;4.640;2022-08-05T08:17:26;2.03;;;0.77;;
67456;SDS011;54319;52.038;4.640;2022-08-05T08:19:54;2.17;;;0.95;;
67456;SDS011;54319;52.038;4.640;2022-08-05T08:22:24;2.10;;;0.75;;
67456;SDS011;54319;52.038;4.640;2022-08-05T08:24:51;2.28;;;0.77;;
67456;SDS011;54319;52.038;4.640;2022-08-05T08:27:19;3.33;;;0.70;;
67456;SDS011;54319;52.038;4.640;2022-08-05T08:29:47;4.07;;;1.05;;
67456;SDS011;54319;52.038;4.640;2022-08-05T08:32:14;2.45;;;0.80;;
67456;SDS011;54319;52.038;4.640;2022-08-05T08:34:41;1.95;;;0.60;;
67456;SDS011;54319;52.038;4.640;2022-08-05T08:37:08;1.13;;;0.55;;
67456;SDS011;54319;52.038;4.640;2022-08-05T08:39:35;2.75;;;0.75;;
67456;SDS011;54319;52.038;4.640;2022-08-05T08:42:02;1.63;;;0.65;;
67456;SDS011;54319;52.038;4.640;2022-08-05T08:44:30;1.58;;;0.80;;
67456;SDS011;54319;52.038;4.640;2022-08-05T08:47:00;1.23;;;0.50;;
67456;SDS011;54319;52.038;4.640;2022-08-05T08:49:28;1.80;;;0.60;;
67456;SDS011;54319;52.038;4.640;2022-08-05T08:52:00;2.00;;;0.57;;
67456;SDS011;54319;52.038;4.640;2022-08-05T08:54:34;1.42;;;0.60;;
67456;SDS011;54319;52.038;4.640;2022-08-05T08:57:03;0.50;;;0.40;;
67456;SDS011;54319;52.038;4.640;2022-08-05T08:59:31;3.92;;;1.40;;
67456;SDS011;54319;52.038;4.640;2022-08-05T09:02:00;0.60;;;0.52;;
67456;SDS011;54319;52.038;4.640;2022-08-05T09:04:32;0.98;;;0.85;;
67456;SDS011;54319;52.038;4.640;2022-08-05T09:07:01;1.75;;;0.60;;
67456;SDS011;54319;52.038;4.640;2022-08-05T09:09:29;2.65;;;0.60;;
67456;SDS011;54319;52.038;4.640;2022-08-05T09:11:56;0.90;;;0.63;;
67456;SDS011;54319;52.038;4.640;2022-08-05T09:14:23;1.23;;;0.57;;
67456;SDS011;54319;52.038;4.640;2022-08-05T09:16:51;1.00;;;0.60;;
67456;SDS011;54319;52.038;4.640;2022-08-05T09:19:19;2.20;;;0.82;;
67456;SDS011;54319;52.038;4.640;2022-08-05T09:21:46;2.72;;;0.50;;
67456;SDS011;54319;52.038;4.640;2022-08-05T09:24:12;1.85;;;0.75;;
67456;SDS011;54319;52.038;4.640;2022-08-05T09:26:40;1.98;;;0.68;;
67456;SDS011;54319;52.038;4.640;2022-08-05T09:29:07;5.00;;;0.77;;
67456;SDS011;54319;52.038;4.640;2022-08-05T09:31:34;3.28;;;0.93;;
67456;SDS011;54319;52.038;4.640;2022-08-05T09:34:02;4.75;;;0.90;;
67456;SDS011;54319;52.038;4.640;2022-08-05T09:36:39;2.53;;;0.70;;
67456;SDS011;54319;52.038;4.640;2022-08-05T09:39:08;5.05;;;0.68;;
67456;SDS011;54319;52.038;4.640;2022-08-05T09:44:31;2.28;;;0.63;;
67456;SDS011;54319;52.038;4.640;2022-08-05T09:47:06;1.77;;;0.52;;
67456;SDS011;54319;52.038;4.640;2022-08-05T09:49:34;0.82;;;0.30;;
67456;SDS011;54319;52.038;4.640;2022-08-05T09:52:17;1.27;;;0.47;;
67456;SDS011;54319;52.038;4.640;2022-08-05T09:54:57;5.40;;;0.70;;
67456;SDS011;54319;52.038;4.640;2022-08-05T09:57:29;0.95;;;0.43;;
67456;SDS011;54319;52.038;4.640;2022-08-05T09:59:57;0.60;;;0.28;;
67456;SDS011;54319;52.038;4.640;2022-08-05T10:02:32;2.20;;;1.08;;
67456;SDS011;54319;52.038;4.640;2022-08-05T10:05:07;2.60;;;0.80;;
67456;SDS011;54319;52.038;4.640;2022-08-05T10:07:48;0.90;;;0.57;;
67456;SDS011;54319;52.038;4.640;2022-08-05T10:10:16;3.13;;;0.60;;
67456;SDS011;54319;52.038;4.640;2022-08-05T10:12:45;0.80;;;0.40;;
67456;SDS011;54319;52.038;4.640;2022-08-05T10:15:21;4.25;;;0.40;;
67456;SDS011;54319;52.038;4.640;2022-08-05T10:18:09;2.42;;;0.50;;
67456;SDS011;54319;52.038;4.640;2022-08-05T10:20:38;1.55;;;0.52;;
67456;SDS011;54319;52.038;4.640;2022-08-05T10:23:10;1.90;;;0.47;;
67456;SDS011;54319;52.038;4.640;2022-08-05T10:25:38;1.08;;;0.63;;
67456;SDS011;54319;52.038;4.640;2022-08-05T10:28:05;1.67;;;0.40;;
67456;SDS011;54319;52.038;4.640;2022-08-05T10:30:33;2.80;;;0.60;;
67456;SDS011;54319;52.038;4.640;2022-08-05T10:33:01;1.67;;;0.52;;
67456;SDS011;54319;52.038;4.640;2022-08-05T10:35:29;1.02;;;0.47;;
67456;SDS011;54319;52.038;4.640;2022-08-05T10:37:58;2.33;;;0.60;;
67456;SDS011;54319;52.038;4.640;2022-08-05T10:40:28;0.73;;;0.40;;
67456;SDS011;54319;52.038;4.640;2022-08-05T10:43:06;2.88;;;0.55;;
67456;SDS011;54319;52.038;4.640;2022-08-05T10:45:38;2.65;;;0.60;;
67456;SDS011;54319;52.038;4.640;2022-08-05T10:51:03;4.55;;;1.05;;
67456;SDS011;54319;52.038;4.640;2022-08-05T10:53:39;1.90;;;0.50;;
67456;SDS011;54319;52.038;4.640;2022-08-05T10:56:10;2.72;;;0.60;;
67456;SDS011;54319;52.038;4.640;2022-08-05T10:58:50;1.70;;;0.52;;
67456;SDS011;54319;52.038;4.640;2022-08-05T11:01:31;5.13;;;1.00;;
67456;SDS011;54319;52.038;4.640;2022-08-05T11:04:06;1.77;;;0.52;;
67456;SDS011;54319;52.038;4.640;2022-08-05T11:09:35;2.03;;;0.50;;
67456;SDS011;54319;52.038;4.640;2022-08-05T11:12:04;0.93;;;0.40;;
67456;SDS011;54319;52.038;4.640;2022-08-05T11:15:06;3.70;;;0.50;;
67456;SDS011;54319;52.038;4.640;2022-08-05T11:17:34;2.40;;;0.30;;
67456;SDS011;54319;52.038;4.640;2022-08-05T11:20:03;2.88;;;0.60;;
67456;SDS011;54319;52.038;4.640;2022-08-05T11:22:39;2.88;;;0.30;;
67456;SDS011;54319;52.038;4.640;2022-08-05T11:25:26;0.70;;;0.30;;
67456;SDS011;54319;52.038;4.640;2022-08-05T11:28:33;0.70;;;0.40;;
67456;SDS011;54319;52.038;4.640;2022-08-05T11:31:22;1.08;;;0.40;;
67456;SDS011;54319;52.038;4.640;2022-08-05T11:34:02;0.40;;;0.40;;
67456;SDS011;54319;52.038;4.640;2022-08-05T11:36:49;2.60;;;0.43;;
67456;SDS011;54319;52.038;4.640;2022-08-05T11:42:16;2.20;;;0.40;;
67456;SDS011;54319;52.038;4.640;2022-08-05T11:44:50;1.40;;;0.52;;
67456;SDS011;54319;52.038;4.640;2022-08-05T11:47:22;2.97;;;0.60;;
67456;SDS011;54319;52.038;4.640;2022-08-05T11:49:53;0.93;;;0.40;;
67456;SDS011;54319;52.038;4.640;2022-08-05T11:52:22;4.13;;;0.52;;
67456;SDS011;54319;52.038;4.640;2022-08-05T11:54:50;0.70;;;0.40;;
67456;SDS011;54319;52.038;4.640;2022-08-05T11:57:17;2.30;;;0.43;;
67456;SDS011;54319;52.038;4.640;2022-08-05T11:59:45;1.15;;;0.30;;
67456;SDS011;54319;52.038;4.640;2022-08-05T12:02:13;1.23;;;0.45;;
67456;SDS011;54319;52.038;4.640;2022-08-05T12:04:40;0.80;;;0.30;;
67456;SDS011;54319;52.038;4.640;2022-08-05T12:07:09;1.27;;;0.32;;
67456;SDS011;54319;52.038;4.640;2022-08-05T12:09:39;1.00;;;0.30;;
67456;SDS011;54319;52.038;4.640;2022-08-05T12:12:09;2.67;;;0.50;;
67456;SDS011;54319;52.038;4.640;2022-08-05T12:14:36;2.05;;;0.38;;
67456;SDS011;54319;52.038;4.640;2022-08-05T12:17:08;0.77;;;0.35;;
67456;SDS011;54319;52.038;4.640;2022-08-05T12:19:44;1.77;;;0.30;;
67456;SDS011;54319;52.038;4.640;2022-08-05T12:22:13;1.88;;;0.50;;
67456;SDS011;54319;52.038;4.640;2022-08-05T12:24:40;0.65;;;0.20;;
67456;SDS011;54319;52.038;4.640;2022-08-05T12:27:09;0.63;;;0.20;;
67456;SDS011;54319;52.038;4.640;2022-08-05T12:29:36;2.05;;;0.35;;
67456;SDS011;54319;52.038;4.640;2022-08-05T12:32:04;4.80;;;0.52;;
67456;SDS011;54319;52.038;4.640;2022-08-05T12:34:31;1.40;;;0.40;;
67456;SDS011;54319;52.038;4.640;2022-08-05T12:37:04;0.20;;;0.20;;
67456;SDS011;54319;52.038;4.640;2022-08-05T12:39:35;4.15;;;0.70;;
67456;SDS011;54319;52.038;4.640;2022-08-05T12:42:08;1.55;;;0.50;;
67456;SDS011;54319;52.038;4.640;2022-08-05T12:44:36;0.80;;;0.50;;
67456;SDS011;54319;52.038;4.640;2022-08-05T12:47:04;1.65;;;0.40;;
67456;SDS011;54319;52.038;4.640;2022-08-05T12:49:41;0.75;;;0.40;;
67456;SDS011;54319;52.038;4.640;2022-08-05T12:52:14;0.50;;;0.20;;
67456;SDS011;54319;52.038;4.640;2022-08-05T12:54:42;1.05;;;0.30;;
67456;SDS011;54319;52.038;4.640;2022-08-05T12:57:11;0.20;;;0.20;;
67456;SDS011;54319;52.038;4.640;2022-08-05T12:59:45;1.33;;;0.50;;
67456;SDS011;54319;52.038;4.640;2022-08-05T13:02:18;2.75;;;0.50;;
67456;SDS011;54319;52.038;4.640;2022-08-05T13:04:46;1.55;;;0.50;;
67456;SDS011;54319;52.038;4.640;2022-08-05T13:07:16;2.28;;;0.60;;
67456;SDS011;54319;52.038;4.640;2022-08-05T13:09:47;1.02;;;0.38;;
67456;SDS011;54319;52.038;4.640;2022-08-05T13:12:16;2.22;;;0.60;;
67456;SDS011;54319;52.038;4.640;2022-08-05T13:14:45;1.27;;;0.20;;
67456;SDS011;54319;52.038;4.640;2022-08-05T13:17:17;0.85;;;0.40;;
67456;SDS011;54319;52.038;4.640;2022-08-05T13:19:59;0.57;;;0.28;;
67456;SDS011;54319;52.038;4.640;2022-08-05T13:22:30;0.88;;;0.47;;
67456;SDS011;54319;52.038;4.640;2022-08-05T13:24:58;1.45;;;0.57;;
67456;SDS011;54319;52.038;4.640;2022-08-05T13:27:25;1.25;;;0.40;;
67456;SDS011;54319;52.038;4.640;2022-08-05T13:29:54;1.40;;;0.38;;
67456;SDS011;54319;52.038;4.640;2022-08-05T13:32:21;0.93;;;0.35;;
67456;SDS011;54319;52.038;4.640;2022-08-05T13:34:48;1.55;;;0.47;;
67456;SDS011;54319;52.038;4.640;2022-08-05T13:37:16;0.52;;;0.35;;
67456;SDS011;54319;52.038;4.640;2022-08-05T13:39:45;3.03;;;0.70;;
67456;SDS011;54319;52.038;4.640;2022-08-05T13:42:12;1.67;;;0.68;;
67456;SDS011;54319;52.038;4.640;2022-08-05T13:44:39;0.45;;;0.40;;
67456;SDS011;54319;52.038;4.640;2022-08-05T13:47:06;1.90;;;0.50;;
67456;SDS011;54319;52.038;4.640;2022-08-05T13:49:33;2.03;;;0.70;;
67456;SDS011;54319;52.038;4.640;2022-08-05T13:52:08;3.33;;;0.70;;
67456;SDS011;54319;52.038;4.640;2022-08-05T13:54:35;3.00;;;0.70;;
67456;SDS011;54319;52.038;4.640;2022-08-05T13:59:30;3.65;;;0.50;;
67456;SDS011;54319;52.038;4.640;2022-08-05T14:01:58;4.90;;;0.80;;
67456;SDS011;54319;52.038;4.640;2022-08-05T14:04:28;1.30;;;0.57;;
67456;SDS011;54319;52.038;4.640;2022-08-05T14:07:15;2.92;;;0.57;;
67456;SDS011;54319;52.038;4.640;2022-08-05T14:09:42;2.30;;;0.77;;
67456;SDS011;54319;52.038;4.640;2022-08-05T14:12:11;3.13;;;0.52;;
67456;SDS011;54319;52.038;4.640;2022-08-05T14:14:37;2.08;;;0.70;;
67456;SDS011;54319;52.038;4.640;2022-08-05T14:17:05;1.70;;;0.82;;
67456;SDS011;54319;52.038;4.640;2022-08-05T14:19:32;2.58;;;0.75;;
67456;SDS011;54319;52.038;4.640;2022-08-05T14:21:59;1.90;;;0.65;;
67456;SDS011;54319;52.038;4.640;2022-08-05T14:24:26;3.53;;;0.80;;
67456;SDS011;54319;52.038;4.640;2022-08-05T14:26:53;3.25;;;0.90;;
67456;SDS011;54319;52.038;4.640;2022-08-05T14:29:22;4.65;;;0.80;;
67456;SDS011;54319;52.038;4.640;2022-08-05T14:31:48;3.10;;;0.90;;
67456;SDS011;54319;52.038;4.640;2022-08-05T14:34:15;3.08;;;0.65;;
67456;SDS011;54319;52.038;4.640;2022-08-05T14:36:42;3.95;;;0.98;;
67456;SDS011;54319;52.038;4.640;2022-08-05T14:39:08;3.55;;;0.63;;
67456;SDS011;54319;52.038;4.640;2022-08-05T14:44:02;3.47;;;0.90;;
67456;SDS011;54319;52.038;4.640;2022-08-05T14:46:31;2.97;;;1.48;;
67456;SDS011;54319;52.038;4.640;2022-08-05T14:48:59;1.70;;;0.73;;
67456;SDS011;54319;52.038;4.640;2022-08-05T14:51:26;2.40;;;0.47;;
67456;SDS011;54319;52.038;4.640;2022-08-05T14:58:46;1.92;;;0.98;;
67456;SDS011;54319;52.038;4.640;2022-08-05T15:01:15;1.77;;;0.70;;
67456;SDS011;54319;52.038;4.640;2022-08-05T15:03:43;6.22;;;0.82;;
67456;SDS011;54319;52.038;4.640;2022-08-05T15:06:12;2.28;;;0.70;;
67456;SDS011;54319;52.038;4.640;2022-08-05T15:08:39;2.22;;;0.98;;
67456;SDS011;54319;52.038;4.640;2022-08-05T15:11:06;2.08;;;0.68;;
67456;SDS011;54319;52.038;4.640;2022-08-05T15:13:33;1.05;;;0.63;;
67456;SDS011;54319;52.038;4.640;2022-08-05T15:16:00;3.22;;;0.70;;
67456;SDS011;54319;52.038;4.640;2022-08-05T15:18:26;3.20;;;0.70;;
67456;SDS011;54319;52.038;4.640;2022-08-05T15:20:55;2.45;;;1.10;;
67456;SDS011;54319;52.038;4.640;2022-08-05T15:23:21;2.70;;;0.80;;
67456;SDS011;54319;52.038;4.640;2022-08-05T15:25:48;2.65;;;0.70;;
67456;SDS011;54319;52.038;4.640;2022-08-05T15:28:15;4.10;;;1.00;;
67456;SDS011;54319;52.038;4.640;2022-08-05T15:30:42;4.50;;;0.63;;
67456;SDS011;54319;52.038;4.640;2022-08-05T15:33:09;6.18;;;0.90;;
67456;SDS011;54319;52.038;4.640;2022-08-05T15:38:03;3.17;;;0.65;;
67456;SDS011;54319;52.038;4.640;2022-08-05T15:40:30;4.40;;;0.90;;
67456;SDS011;54319;52.038;4.640;2022-08-05T15:42:57;2.35;;;1.00;;
67456;SDS011;54319;52.038;4.640;2022-08-05T15:45:24;5.68;;;1.00;;
67456;SDS011;54319;52.038;4.640;2022-08-05T15:47:51;2.80;;;0.90;;